Time;durP1;ratioP1;P1;durP2;ratioP2;P2;SDS_P1;SDS_P2;PMS_P1;PMS_P2;Temp;Humidity;BMP_temperature;BMP_pressure;BME280_temperature;BME280_humidity;BME280_pressure;Samples;Min_cycle;Max_cycle;Signal;HPM_P1;HPM_P2
2023/12/24 00:02:09;;;;;;;18.50;2.78;;;10.00;99.90;;;;;;5029483;28;20635;-72
2023/12/24 00:04:35;;;;;;;24.65;3.67;;;9.10;99.90;;;;;;5020438;28;20639;-72
2023/12/24 00:07:00;;;;;;;13.88;2.20;;;9.40;99.90;;;;;;5046475;28;20198;-71
2023/12/24 00:09:26;;;;;;;14.02;2.13;;;9.10;99.90;;;;;;5045942;28;20648;-72
2023/12/24 00:11:52;;;;;;;16.02;2.90;;;9.80;99.90;;;;;;5046199;28;20166;-71
2023/12/24 00:14:18;;;;;;;17.88;2.58;;;9.10;99.90;;;;;;5034765;28;20123;-72
2023/12/24 00:16:44;;;;;;;21.00;3.15;;;10.10;99.90;;;;;;5046852;28;20044;-71
2023/12/24 00:19:09;;;;;;;22.67;2.83;;;9.20;99.90;;;;;;5036932;28;20070;-72
2023/12/24 00:21:35;;;;;;;12.27;2.38;;;9.50;99.90;;;;;;5050543;28;20200;-71
2023/12/24 00:24:01;;;;;;;17.55;2.58;;;9.10;99.90;;;;;;5049944;28;20055;-71
2023/12/24 00:26:26;;;;;;;19.52;3.22;;;9.50;99.90;;;;;;5020128;28;20032;-71
2023/12/24 00:28:52;;;;;;;15.18;2.15;;;9.40;99.90;;;;;;5050609;28;20138;-71
2023/12/24 00:31:18;;;;;;;18.60;3.15;;;9.60;99.90;;;;;;5051676;28;20383;-71
2023/12/24 00:33:44;;;;;;;12.50;2.35;;;9.80;99.90;;;;;;5034205;28;20097;-70
2023/12/24 00:36:09;;;;;;;15.82;3.00;;;9.10;99.90;;;;;;5033318;28;20036;-71
2023/12/24 00:38:35;;;;;;;15.20;2.63;;;9.70;99.90;;;;;;5034398;28;20047;-72
2023/12/24 00:41:01;;;;;;;18.63;3.35;;;10.00;99.90;;;;;;5048753;28;20040;-71
2023/12/24 00:43:26;;;;;;;20.77;3.28;;;9.20;99.90;;;;;;5048828;28;20036;-71
2023/12/24 00:45:52;;;;;;;14.57;2.28;;;9.20;99.90;;;;;;5051213;28;20599;-72
2023/12/24 00:48:18;;;;;;;17.92;3.10;;;9.10;99.90;;;;;;5034069;28;20038;-72
2023/12/24 00:50:43;;;;;;;15.23;3.10;;;9.80;99.90;;;;;;5050103;28;20474;-71
2023/12/24 00:53:09;;;;;;;18.40;3.10;;;9.90;99.90;;;;;;5049582;28;20052;-71
2023/12/24 00:55:35;;;;;;;20.17;3.22;;;9.30;99.90;;;;;;5050959;28;20258;-73
2023/12/24 00:58:01;;;;;;;16.05;2.67;;;9.20;99.90;;;;;;5049267;28;20233;-71
2023/12/24 01:00:26;;;;;;;18.98;2.83;;;9.50;99.90;;;;;;5049603;28;20043;-72
2023/12/24 01:02:52;;;;;;;15.43;3.25;;;9.30;99.90;;;;;;5033996;28;20663;-71
2023/12/24 01:05:18;;;;;;;22.42;3.33;;;9.50;99.90;;;;;;5033342;28;20662;-71
2023/12/24 01:07:44;;;;;;;20.20;3.97;;;9.60;99.90;;;;;;5049908;28;20328;-72
2023/12/24 01:10:10;;;;;;;19.50;3.05;;;9.70;99.90;;;;;;5050130;28;20498;-71
2023/12/24 01:12:37;;;;;;;15.68;3.00;;;9.10;99.90;;;;;;5049238;28;20816;-71
2023/12/24 01:15:03;;;;;;;19.48;3.28;;;9.20;99.90;;;;;;5050055;28;20071;-71
2023/12/24 01:17:29;;;;;;;13.80;2.92;;;9.30;99.90;;;;;;5033490;28;20040;-72
2023/12/24 01:19:56;;;;;;;19.23;3.75;;;9.20;99.90;;;;;;5049431;28;20047;-72
2023/12/24 01:22:22;;;;;;;18.40;3.78;;;10.00;99.90;;;;;;5032820;28;20048;-72
2023/12/24 01:24:48;;;;;;;20.23;3.65;;;10.10;99.90;;;;;;5033458;28;20191;-72
2023/12/24 01:27:14;;;;;;;13.25;3.22;;;9.10;99.90;;;;;;5050294;28;20628;-72
2023/12/24 01:29:39;;;;;;;16.30;2.90;;;9.20;99.90;;;;;;5033217;28;20090;-72
2023/12/24 01:32:05;;;;;;;15.95;3.70;;;10.20;99.90;;;;;;5033955;28;20056;-72
2023/12/24 01:34:31;;;;;;;17.40;2.80;;;9.60;99.90;;;;;;5049210;28;20085;-72
2023/12/24 01:36:57;;;;;;;17.23;2.83;;;9.10;99.90;;;;;;5052058;28;20055;-71
2023/12/24 01:39:22;;;;;;;18.80;3.10;;;9.30;99.90;;;;;;5033266;28;20153;-71
2023/12/24 01:41:48;;;;;;;20.25;2.80;;;9.20;99.90;;;;;;5048708;28;20032;-71
2023/12/24 01:44:14;;;;;;;17.30;2.83;;;9.40;99.90;;;;;;5049883;28;20043;-71
2023/12/24 01:46:40;;;;;;;18.23;2.80;;;10.10;99.90;;;;;;5034114;28;20037;-72
2023/12/24 01:49:07;;;;;;;13.50;2.60;;;9.90;99.90;;;;;;5048611;28;20369;-71
2023/12/24 01:51:34;;;;;;;17.67;2.58;;;9.20;99.90;;;;;;5047282;28;20044;-71
2023/12/24 01:54:00;;;;;;;15.23;3.40;;;9.50;99.90;;;;;;5033513;28;20044;-72
2023/12/24 01:56:27;;;;;;;15.18;3.05;;;9.20;99.90;;;;;;5049608;28;20127;-71
2023/12/24 01:58:53;;;;;;;14.75;2.15;;;9.30;99.90;;;;;;5049423;28;20240;-72
2023/12/24 02:01:19;;;;;;;21.17;3.10;;;10.10;99.90;;;;;;5048212;28;20056;-72
2023/12/24 02:03:45;;;;;;;14.95;2.30;;;10.10;99.90;;;;;;5049495;28;20807;-72
2023/12/24 02:06:12;;;;;;;10.38;2.13;;;9.20;99.90;;;;;;5047138;28;20048;-71
2023/12/24 02:08:37;;;;;;;8.15;1.42;;;10.00;99.90;;;;;;5047163;28;20044;-71
2023/12/24 02:11:04;;;;;;;17.95;3.22;;;10.20;99.90;;;;;;5049214;28;20592;-71
2023/12/24 02:13:31;;;;;;;6.45;1.73;;;10.10;99.90;;;;;;5048175;28;20075;-70
2023/12/24 02:16:00;;;;;;;13.43;2.90;;;9.20;99.90;;;;;;5032856;28;20105;-71
2023/12/24 02:18:26;;;;;;;11.65;2.42;;;9.20;99.90;;;;;;5033332;28;20048;-71
2023/12/24 02:20:52;;;;;;;11.95;2.30;;;10.10;99.90;;;;;;5032744;28;20126;-72
2023/12/24 02:23:17;;;;;;;11.60;2.60;;;9.20;99.90;;;;;;5049691;28;20491;-71
2023/12/24 02:25:43;;;;;;;6.38;1.75;;;10.20;99.90;;;;;;5049339;28;20078;-72
2023/12/24 02:28:24;;;;;;;8.68;2.15;;;9.20;99.90;;;;;;5047631;28;20043;-71
2023/12/24 02:30:56;;;;;;;8.55;1.95;;;10.10;99.90;;;;;;5047145;28;20040;-71
2023/12/24 02:33:24;;;;;;;11.13;1.90;;;10.10;99.90;;;;;;5048822;28;20131;-71
2023/12/24 02:35:51;;;;;;;9.13;1.95;;;9.40;99.90;;;;;;5047266;28;20060;-71
2023/12/24 02:38:17;;;;;;;11.48;2.78;;;10.00;99.90;;;;;;5037338;28;20452;-71
2023/12/24 02:40:42;;;;;;;8.68;2.83;;;9.20;99.90;;;;;;5047615;28;20044;-71
2023/12/24 02:43:11;;;;;;;14.68;4.07;;;9.30;99.90;;;;;;5046704;28;20047;-72
2023/12/24 02:45:36;;;;;;;7.05;2.45;;;9.80;99.90;;;;;;5014299;28;20044;-71
2023/12/24 02:48:02;;;;;;;11.80;2.80;;;9.80;99.90;;;;;;5031132;28;20033;-72
2023/12/24 02:50:28;;;;;;;15.43;3.47;;;10.30;99.90;;;;;;5049465;28;20510;-72
2023/12/24 02:52:54;;;;;;;11.60;3.17;;;10.20;99.90;;;;;;5048509;28;20140;-73
2023/12/24 02:55:19;;;;;;;12.88;3.35;;;10.30;99.90;;;;;;5032373;28;20376;-73
2023/12/24 02:57:45;;;;;;;10.13;3.10;;;9.20;99.90;;;;;;5048352;28;20044;-71
2023/12/24 03:00:11;;;;;;;15.13;2.65;;;10.20;99.90;;;;;;5046626;28;20040;-71
2023/12/24 03:02:37;;;;;;;13.27;2.65;;;10.20;99.90;;;;;;5047303;28;20049;-72
2023/12/24 03:05:03;;;;;;;11.32;2.60;;;9.50;99.90;;;;;;5017594;28;20048;-72
2023/12/24 03:07:28;;;;;;;14.73;3.33;;;10.20;99.90;;;;;;5049025;28;20043;-72
2023/12/24 03:09:54;;;;;;;13.27;2.95;;;9.30;99.90;;;;;;5031568;28;20036;-71
2023/12/24 03:12:21;;;;;;;10.57;3.08;;;10.30;99.90;;;;;;5048590;28;20090;-71
2023/12/24 03:14:47;;;;;;;16.40;3.80;;;9.40;99.90;;;;;;5047220;28;20276;-72
2023/12/24 03:17:13;;;;;;;18.08;3.63;;;9.70;99.90;;;;;;5029687;28;20267;-72
2023/12/24 03:19:38;;;;;;;13.35;3.50;;;10.40;99.90;;;;;;5047634;28;20093;-72
2023/12/24 03:22:04;;;;;;;20.75;3.47;;;10.50;99.90;;;;;;5030194;28;20036;-72
2023/12/24 03:24:30;;;;;;;12.30;3.13;;;9.70;99.90;;;;;;5048083;28;20396;-71
2023/12/24 03:26:55;;;;;;;13.93;3.28;;;10.40;99.90;;;;;;5046596;28;20135;-72
2023/12/24 03:29:22;;;;;;;14.73;3.13;;;9.30;99.90;;;;;;5047518;28;20043;-71
2023/12/24 03:31:47;;;;;;;14.63;3.17;;;10.40;99.90;;;;;;5016872;28;20071;-72
2023/12/24 03:34:14;;;;;;;14.70;2.60;;;9.40;99.90;;;;;;5030470;28;20048;-72
2023/12/24 03:36:40;;;;;;;13.30;2.35;;;10.00;99.90;;;;;;5047235;28;20299;-71
2023/12/24 03:39:06;;;;;;;11.60;2.67;;;10.40;99.90;;;;;;5031721;28;20044;-71
2023/12/24 03:41:32;;;;;;;9.52;1.88;;;10.30;99.90;;;;;;5029977;28;20044;-71
2023/12/24 03:43:58;;;;;;;14.63;3.00;;;10.40;99.90;;;;;;5047275;28;20049;-72
2023/12/24 03:46:23;;;;;;;12.43;2.50;;;9.40;99.90;;;;;;5045349;28;20040;-72
2023/12/24 03:48:49;;;;;;;9.13;2.25;;;9.40;99.90;;;;;;5031061;28;20402;-72
2023/12/24 03:51:15;;;;;;;10.65;2.65;;;10.00;99.90;;;;;;5028833;28;20056;-72
2023/12/24 03:53:41;;;;;;;13.30;3.40;;;9.40;99.90;;;;;;5046391;28;20441;-71
2023/12/24 03:56:09;;;;;;;6.32;1.90;;;10.30;99.90;;;;;;5045762;28;20443;-72
2023/12/24 03:58:36;;;;;;;10.45;3.03;;;10.50;99.90;;;;;;5029249;28;20044;-71
2023/12/24 04:01:08;;;;;;;12.40;3.03;;;10.60;99.90;;;;;;5047414;28;20101;-72
2023/12/24 04:03:34;;;;;;;12.73;3.00;;;9.90;99.90;;;;;;5047092;28;20061;-72
2023/12/24 04:06:01;;;;;;;5.03;1.63;;;9.50;99.90;;;;;;5035037;28;20105;-72
2023/12/24 04:08:27;;;;;;;5.82;2.00;;;10.50;99.90;;;;;;5047420;28;20472;-72
2023/12/24 04:10:52;;;;;;;6.63;1.48;;;10.30;99.90;;;;;;5046161;28;20037;-72
2023/12/24 04:13:18;;;;;;;3.67;1.50;;;10.50;99.90;;;;;;5045956;28;20465;-72
2023/12/24 04:15:44;;;;;;;3.70;0.98;;;10.60;99.90;;;;;;5031068;28;20048;-71
2023/12/24 04:18:09;;;;;;;5.50;1.65;;;10.50;99.90;;;;;;5030580;28;20052;-71
2023/12/24 04:20:35;;;;;;;4.47;1.75;;;10.20;99.90;;;;;;5046337;28;20243;-72
2023/12/24 04:23:01;;;;;;;3.67;1.67;;;10.20;99.90;;;;;;5030130;28;20454;-72
2023/12/24 04:25:27;;;;;;;7.00;1.80;;;10.30;99.90;;;;;;5029726;28;20093;-72
2023/12/24 04:27:53;;;;;;;6.72;1.90;;;10.40;99.90;;;;;;5014536;28;20113;-72
2023/12/24 04:30:19;;;;;;;3.20;1.48;;;9.60;99.90;;;;;;5004103;28;20494;-72
2023/12/24 04:32:44;;;;;;;0.00;0.00;;;10.60;99.90;;;;;;5046059;28;20040;-71
2023/12/24 04:35:10;;;;;;;0.00;0.00;;;10.60;99.90;;;;;;5045608;28;20044;-71
2023/12/24 04:37:36;;;;;;;0.00;0.00;;;10.30;99.90;;;;;;5047489;28;20408;-72
2023/12/24 04:40:02;;;;;;;0.70;0.00;;;10.60;99.90;;;;;;5012773;28;20052;-71
2023/12/24 04:42:30;;;;;;;0.00;0.00;;;10.20;99.90;;;;;;5046826;28;20072;-71
2023/12/24 04:44:55;;;;;;;0.00;0.00;;;10.10;99.90;;;;;;5046187;28;20045;-72
2023/12/24 04:47:21;;;;;;;0.00;0.00;;;10.40;99.90;;;;;;5045964;28;20062;-72
2023/12/24 04:49:47;;;;;;;0.00;0.00;;;10.30;99.90;;;;;;5064710;28;20048;-72
2023/12/24 04:52:12;;;;;;;0.00;0.00;;;10.00;99.90;;;;;;5045848;28;20388;-71
2023/12/24 04:54:38;;;;;;;0.00;0.00;;;9.70;99.90;;;;;;5046328;28;20048;-72
2023/12/24 04:57:04;;;;;;;0.00;0.00;;;10.50;99.90;;;;;;5046411;28;20029;-72
2023/12/24 04:59:30;;;;;;;0.00;0.00;;;9.60;99.90;;;;;;5046432;28;20539;-72
2023/12/24 05:01:57;;;;;;;0.00;0.00;;;10.80;99.90;;;;;;5030957;28;20072;-72
2023/12/24 05:04:26;;;;;;;0.00;0.00;;;9.70;99.90;;;;;;5048233;28;20911;-72
2023/12/24 05:06:51;;;;;;;0.00;0.00;;;10.60;99.90;;;;;;5039218;28;20040;-72
2023/12/24 05:09:17;;;;;;;0.52;0.20;;;9.70;99.90;;;;;;5051096;28;20447;-71
2023/12/24 05:11:43;;;;;;;0.00;0.00;;;9.80;99.90;;;;;;5021258;28;20040;-71
2023/12/24 05:14:08;;;;;;;0.00;0.00;;;10.80;99.90;;;;;;5049180;28;20887;-71
2023/12/24 05:16:34;;;;;;;0.10;0.10;;;10.80;99.90;;;;;;5048668;28;20336;-72
2023/12/24 05:19:00;;;;;;;0.00;0.00;;;10.50;99.90;;;;;;5049081;28;20126;-71
2023/12/24 05:21:29;;;;;;;0.00;0.00;;;9.90;99.90;;;;;;5032847;28;20380;-73
2023/12/24 05:23:56;;;;;;;0.00;0.00;;;10.80;99.90;;;;;;5050911;28;20048;-73
2023/12/24 05:26:24;;;;;;;0.00;0.00;;;10.30;99.90;;;;;;5032801;28;20612;-72
2023/12/24 05:28:52;;;;;;;0.00;0.00;;;9.90;99.90;;;;;;5031364;28;20056;-72
2023/12/24 05:31:18;;;;;;;0.00;0.00;;;10.90;99.90;;;;;;5049125;28;21269;-72
2023/12/24 05:33:44;;;;;;;0.00;0.00;;;10.00;99.90;;;;;;5034200;28;20102;-72
2023/12/24 05:36:13;;;;;;;0.00;0.00;;;10.90;99.90;;;;;;5033874;28;20888;-73
2023/12/24 05:38:39;;;;;;;0.20;0.20;;;10.90;99.90;;;;;;5049436;28;20037;-72
2023/12/24 05:41:12;;;;;;;0.90;0.20;;;10.90;99.90;;;;;;5048495;28;20056;-72
2023/12/24 05:43:38;;;;;;;0.00;0.00;;;10.10;99.90;;;;;;5042741;28;20040;-69
2023/12/24 05:46:11;;;;;;;0.03;0.03;;;10.30;99.90;;;;;;5050333;28;20055;-68
2023/12/24 05:48:37;;;;;;;0.00;0.00;;;10.80;99.90;;;;;;5051907;28;20044;-69
2023/12/24 05:51:03;;;;;;;0.13;0.00;;;11.00;99.90;;;;;;5049926;28;20080;-69
2023/12/24 05:53:28;;;;;;;0.00;0.00;;;9.80;99.90;;;;;;5040212;28;20418;-69
2023/12/24 05:55:54;;;;;;;0.32;0.10;;;9.90;99.90;;;;;;5022263;28;20372;-68
2023/12/24 05:58:20;;;;;;;0.00;0.00;;;9.90;99.90;;;;;;5049115;28;20040;-69
2023/12/24 06:00:46;;;;;;;0.00;0.00;;;11.10;99.90;;;;;;5033870;28;20514;-69
2023/12/24 06:03:12;;;;;;;0.10;0.00;;;11.10;99.90;;;;;;5049435;28;20067;-69
2023/12/24 06:05:38;;;;;;;0.10;0.10;;;10.10;99.90;;;;;;5049793;28;20052;-72
2023/12/24 06:08:04;;;;;;;1.38;0.20;;;10.30;99.90;;;;;;5048491;28;20043;-69
2023/12/24 06:10:30;;;;;;;0.05;0.00;;;10.50;99.90;;;;;;5049575;28;20044;-69
2023/12/24 06:12:56;;;;;;;0.10;0.10;;;10.60;99.90;;;;;;5048974;28;20040;-69
2023/12/24 06:15:21;;;;;;;0.22;0.22;;;10.40;99.90;;;;;;5049201;28;20047;-69
2023/12/24 06:17:48;;;;;;;0.38;0.00;;;10.70;99.90;;;;;;5050155;28;20397;-70
2023/12/24 06:20:13;;;;;;;0.10;0.00;;;10.80;99.90;;;;;;5050017;28;20048;-69
2023/12/24 06:22:39;;;;;;;0.05;0.00;;;10.20;99.90;;;;;;5032605;28;20454;-70
2023/12/24 06:25:05;;;;;;;0.13;0.10;;;10.80;99.90;;;;;;5047964;28;20050;-68
2023/12/24 06:27:31;;;;;;;5.82;0.10;;;10.10;99.90;;;;;;5033494;28;20398;-69
2023/12/24 06:29:56;;;;;;;0.00;0.00;;;10.30;99.90;;;;;;5049165;28;20040;-69
2023/12/24 06:32:22;;;;;;;0.13;0.05;;;10.80;99.90;;;;;;5032663;28;20373;-69
2023/12/24 06:34:48;;;;;;;0.43;0.15;;;11.30;99.90;;;;;;5049547;28;20048;-69
2023/12/24 06:37:14;;;;;;;0.00;0.00;;;11.30;99.90;;;;;;5032245;28;20051;-69
2023/12/24 06:39:40;;;;;;;0.00;0.00;;;11.30;99.90;;;;;;5033970;28;20036;-69
2023/12/24 06:42:06;;;;;;;0.00;0.00;;;11.20;99.90;;;;;;5049233;28;20628;-69
2023/12/24 06:44:32;;;;;;;0.00;0.00;;;11.30;99.90;;;;;;5048720;28;20037;-69
2023/12/24 06:46:58;;;;;;;1.17;0.32;;;11.40;99.90;;;;;;5049506;28;20446;-70
2023/12/24 06:49:24;;;;;;;0.00;0.00;;;10.70;99.90;;;;;;5048859;28;20064;-69
2023/12/24 06:51:50;;;;;;;0.65;0.25;;;11.40;99.90;;;;;;5050075;28;20136;-69
2023/12/24 06:54:15;;;;;;;0.00;0.00;;;10.40;99.90;;;;;;5031106;28;20043;-69
2023/12/24 06:56:42;;;;;;;0.38;0.00;;;11.40;99.90;;;;;;5019321;28;20098;-70
2023/12/24 06:59:08;;;;;;;0.20;0.10;;;11.10;99.90;;;;;;5032220;28;20076;-69
2023/12/24 07:01:33;;;;;;;0.20;0.20;;;10.00;99.90;;;;;;5006809;28;20135;-70
2023/12/24 07:03:59;;;;;;;0.00;0.00;;;10.10;99.90;;;;;;5048495;28;20063;-69
2023/12/24 07:06:25;;;;;;;1.02;0.20;;;10.10;99.90;;;;;;5019280;28;20037;-69
2023/12/24 07:08:51;;;;;;;0.00;0.00;;;11.40;99.90;;;;;;5047498;28;20044;-70
2023/12/24 07:11:18;;;;;;;0.00;0.00;;;11.50;99.90;;;;;;5047439;28;20044;-69
2023/12/24 07:13:43;;;;;;;0.00;0.00;;;10.10;99.90;;;;;;5047463;28;20040;-69
2023/12/24 07:16:10;;;;;;;0.10;0.10;;;10.20;99.90;;;;;;5048224;28;20084;-69
2023/12/24 07:18:35;;;;;;;0.43;0.15;;;10.70;99.90;;;;;;5031306;28;20040;-69
2023/12/24 07:21:01;;;;;;;0.32;0.30;;;10.30;99.90;;;;;;5031690;28;20036;-69
2023/12/24 07:23:27;;;;;;;0.00;0.00;;;11.30;99.90;;;;;;5015483;28;20055;-69
2023/12/24 07:25:53;;;;;;;5.72;0.10;;;11.30;99.90;;;;;;5032179;28;20044;-69
2023/12/24 07:28:18;;;;;;;0.00;0.00;;;11.60;99.90;;;;;;5046662;28;20352;-70
2023/12/24 07:30:44;;;;;;;0.10;0.00;;;10.40;99.90;;;;;;5048588;28;20040;-69
2023/12/24 07:33:09;;;;;;;0.00;0.00;;;10.80;99.90;;;;;;5032194;28;20079;-69
2023/12/24 07:35:35;;;;;;;0.00;0.00;;;10.70;99.90;;;;;;5047585;28;20042;-69
2023/12/24 07:38:01;;;;;;;0.05;0.00;;;11.60;99.90;;;;;;5046677;28;20044;-69
2023/12/24 07:40:27;;;;;;;0.13;0.10;;;11.70;99.90;;;;;;5014911;28;20514;-70
2023/12/24 07:42:52;;;;;;;0.08;0.00;;;11.60;99.90;;;;;;5005706;28;20101;-69
2023/12/24 07:45:19;;;;;;;0.10;0.10;;;11.00;99.90;;;;;;5048039;28;20281;-69
2023/12/24 07:47:45;;;;;;;0.08;0.05;;;10.60;99.90;;;;;;5046789;28;20044;-69
2023/12/24 07:50:10;;;;;;;12.43;0.95;;;10.50;99.90;;;;;;5031686;28;20234;-69
2023/12/24 07:52:36;;;;;;;2.72;0.00;;;11.00;99.90;;;;;;5046847;28;20109;-69
2023/12/24 07:55:02;;;;;;;0.00;0.00;;;11.30;99.90;;;;;;5013179;28;20032;-69
2023/12/24 07:57:28;;;;;;;0.00;0.00;;;11.70;99.90;;;;;;5016334;28;20040;-69
2023/12/24 07:59:53;;;;;;;0.00;0.00;;;11.70;99.90;;;;;;5047484;28;20115;-69
2023/12/24 08:02:19;;;;;;;0.00;0.00;;;11.60;99.90;;;;;;5046157;28;20041;-71
2023/12/24 08:04:45;;;;;;;0.00;0.00;;;10.90;99.90;;;;;;5048149;28;20571;-69
2023/12/24 08:07:11;;;;;;;0.10;0.10;;;11.60;99.90;;;;;;5031766;28;20129;-69
2023/12/24 08:09:37;;;;;;;3.15;0.00;;;11.30;99.90;;;;;;5047188;28;20529;-69
2023/12/24 08:12:03;;;;;;;0.00;0.00;;;11.50;99.90;;;;;;5047153;28;20040;-69
2023/12/24 08:14:28;;;;;;;0.00;0.00;;;11.20;99.90;;;;;;5046492;28;20074;-69
2023/12/24 08:16:54;;;;;;;0.10;0.10;;;10.40;99.90;;;;;;5047850;28;20777;-69
2023/12/24 08:19:20;;;;;;;0.13;0.10;;;11.20;99.90;;;;;;5050789;28;20033;-69
2023/12/24 08:21:45;;;;;;;1.20;0.10;;;11.80;99.90;;;;;;5048134;28;20056;-69
2023/12/24 08:24:11;;;;;;;0.25;0.05;;;11.80;99.90;;;;;;5030438;28;20231;-69
2023/12/24 08:26:37;;;;;;;0.10;0.00;;;10.50;99.90;;;;;;5031407;28;20098;-70
2023/12/24 08:29:03;;;;;;;1.13;0.08;;;11.80;99.90;;;;;;5047523;28;20101;-69
2023/12/24 08:31:28;;;;;;;0.30;0.08;;;10.50;99.90;;;;;;5047354;28;20797;-71
2023/12/24 08:33:54;;;;;;;0.30;0.10;;;10.90;99.90;;;;;;5047109;28;20036;-69
2023/12/24 08:36:20;;;;;;;0.00;0.00;;;11.80;99.90;;;;;;5030521;28;20044;-69
2023/12/24 08:38:45;;;;;;;2.65;0.35;;;11.90;99.90;;;;;;5051090;28;20352;-69
2023/12/24 08:41:12;;;;;;;0.10;0.10;;;10.90;99.90;;;;;;5051353;28;20131;-69
2023/12/24 08:43:38;;;;;;;0.10;0.00;;;11.80;99.90;;;;;;5051550;28;20332;-69
2023/12/24 08:46:04;;;;;;;0.00;0.00;;;10.40;99.90;;;;;;5033885;28;20071;-69
2023/12/24 08:48:30;;;;;;;0.10;0.00;;;11.30;99.90;;;;;;5003799;28;20097;-70
2023/12/24 08:50:56;;;;;;;0.28;0.00;;;10.50;99.90;;;;;;5051838;28;20040;-70
2023/12/24 08:53:22;;;;;;;0.00;0.00;;;11.20;99.90;;;;;;5051950;28;20626;-69
2023/12/24 08:55:48;;;;;;;4.10;0.10;;;10.50;99.90;;;;;;5035652;28;20387;-71
2023/12/24 08:58:13;;;;;;;3.22;0.28;;;10.50;99.90;;;;;;5052168;28;20760;-70
2023/12/24 09:00:39;;;;;;;0.00;0.00;;;10.80;99.90;;;;;;5050327;28;20045;-68
2023/12/24 09:03:05;;;;;;;0.10;0.00;;;11.40;99.90;;;;;;5050026;28;20489;-70
2023/12/24 09:05:31;;;;;;;0.00;0.00;;;10.60;99.90;;;;;;5037024;28;20043;-72
2023/12/24 09:07:56;;;;;;;2.25;0.00;;;12.00;99.90;;;;;;5049732;28;20123;-70
2023/12/24 09:10:22;;;;;;;0.10;0.00;;;11.40;99.90;;;;;;5035891;28;21080;-72
2023/12/24 09:12:48;;;;;;;0.10;0.00;;;12.00;99.90;;;;;;5053376;28;20072;-70
2023/12/24 09:15:13;;;;;;;0.00;0.00;;;11.30;99.90;;;;;;5053688;28;20537;-70
2023/12/24 09:17:40;;;;;;;1.65;0.57;;;10.70;99.90;;;;;;5037258;28;20076;-70
2023/12/24 09:20:07;;;;;;;0.10;0.00;;;10.90;99.90;;;;;;5053435;28;20041;-72
2023/12/24 09:22:33;;;;;;;0.00;0.00;;;11.00;99.90;;;;;;5052602;28;20877;-70
2023/12/24 09:24:58;;;;;;;0.00;0.00;;;10.70;99.90;;;;;;5051264;28;20111;-70
2023/12/24 09:27:25;;;;;;;0.00;0.00;;;11.90;99.90;;;;;;5049917;28;20094;-70
2023/12/24 09:29:51;;;;;;;0.10;0.10;;;12.00;99.90;;;;;;5051595;28;20318;-70
2023/12/24 09:32:17;;;;;;;0.13;0.00;;;10.70;99.90;;;;;;5050849;28;20040;-71
2023/12/24 09:34:44;;;;;;;0.10;0.10;;;10.80;99.90;;;;;;5049338;28;20098;-71
2023/12/24 09:37:11;;;;;;;0.20;0.00;;;11.90;99.90;;;;;;5033942;28;20382;-70
2023/12/24 09:39:37;;;;;;;0.90;0.00;;;10.90;99.90;;;;;;5032719;28;20570;-71
2023/12/24 09:42:03;;;;;;;0.25;0.25;;;10.70;99.90;;;;;;5031925;28;20148;-71
2023/12/24 09:44:29;;;;;;;0.57;0.00;;;11.70;99.90;;;;;;5033451;28;20083;-70
2023/12/24 09:46:55;;;;;;;0.82;0.08;;;12.00;99.90;;;;;;5049824;28;20036;-70
2023/12/24 09:49:20;;;;;;;0.00;0.00;;;11.10;99.90;;;;;;5050308;28;20085;-68
2023/12/24 09:51:46;;;;;;;0.00;0.00;;;11.40;99.90;;;;;;5049829;28;20087;-68
2023/12/24 09:54:14;;;;;;;1.30;0.30;;;10.70;99.90;;;;;;5030360;28;20273;-68
2023/12/24 09:56:40;;;;;;;0.00;0.00;;;12.40;99.90;;;;;;5049596;28;20119;-69
2023/12/24 09:59:05;;;;;;;0.30;0.20;;;11.60;99.90;;;;;;5031797;28;20675;-68
2023/12/24 10:01:44;;;;;;;3.80;0.20;;;10.80;99.90;;;;;;5033060;28;20032;-68
2023/12/24 10:04:11;;;;;;;0.00;0.00;;;12.10;99.90;;;;;;5050101;28;20113;-68
2023/12/24 10:06:57;;;;;;;0.00;0.00;;;12.20;99.90;;;;;;5048775;28;20052;-68
2023/12/24 10:09:42;;;;;;;0.25;0.10;;;12.30;99.90;;;;;;5050377;28;20095;-69
2023/12/24 10:12:09;;;;;;;0.30;0.10;;;12.30;99.90;;;;;;5022948;28;20122;-69
2023/12/24 10:14:39;;;;;;;0.10;0.00;;;12.00;99.90;;;;;;5022368;28;20334;-69
2023/12/24 10:17:05;;;;;;;0.00;0.00;;;11.50;99.90;;;;;;5050496;28;20056;-68
2023/12/24 10:19:37;;;;;;;0.85;0.30;;;11.50;99.90;;;;;;5049659;28;20537;-70
2023/12/24 10:22:04;;;;;;;0.00;0.00;;;11.70;99.90;;;;;;5049582;28;20644;-68
2023/12/24 10:24:31;;;;;;;0.03;0.00;;;12.30;99.90;;;;;;5020038;28;20036;-68
2023/12/24 10:27:07;;;;;;;1.05;0.47;;;12.30;99.90;;;;;;5050778;28;20048;-68
2023/12/24 10:29:34;;;;;;;1.23;0.08;;;12.40;99.90;;;;;;5051774;28;20584;-69
2023/12/24 10:32:00;;;;;;;1.05;0.08;;;12.50;99.90;;;;;;5050358;28;20045;-69
2023/12/24 10:34:27;;;;;;;9.32;0.43;;;11.10;99.90;;;;;;5049108;28;20051;-68
2023/12/24 10:36:55;;;;;;;0.35;0.00;;;12.20;99.90;;;;;;5049676;28;20235;-68
2023/12/24 10:39:26;;;;;;;0.00;0.00;;;12.40;99.90;;;;;;5050562;28;20045;-68
2023/12/24 10:41:54;;;;;;;0.30;0.10;;;10.90;99.90;;;;;;5049979;28;20261;-72
2023/12/24 10:44:20;;;;;;;0.20;0.15;;;12.60;99.90;;;;;;5033630;28;20037;-69
2023/12/24 10:46:45;;;;;;;0.08;0.00;;;12.70;99.90;;;;;;5049649;28;20040;-68
2023/12/24 10:49:11;;;;;;;0.00;0.00;;;10.90;99.90;;;;;;5032794;28;20036;-68
2023/12/24 10:51:39;;;;;;;0.98;0.00;;;12.70;99.90;;;;;;5029802;28;20055;-68
2023/12/24 10:54:07;;;;;;;0.17;0.15;;;12.50;99.90;;;;;;5030666;28;20309;-69
2023/12/24 10:57:05;;;;;;;5.65;0.52;;;11.00;99.90;;;;;;5049148;28;20048;-69
2023/12/24 10:59:53;;;;;;;0.80;0.52;;;12.00;99.90;;;;;;5010169;28;20044;-68
2023/12/24 11:02:21;;;;;;;0.77;0.30;;;11.60;99.90;;;;;;5047931;28;20438;-68
2023/12/24 11:04:48;;;;;;;0.20;0.08;;;12.50;99.90;;;;;;5031564;28;20048;-68
2023/12/24 11:07:45;;;;;;;0.10;0.00;;;12.80;99.90;;;;;;5047442;28;20121;-68
2023/12/24 11:10:42;;;;;;;0.10;0.03;;;11.30;99.90;;;;;;5048938;28;20052;-69
2023/12/24 11:13:09;;;;;;;0.00;0.00;;;12.80;99.90;;;;;;5018123;28;20071;-69
2023/12/24 11:15:43;;;;;;;2.17;0.10;;;12.90;99.90;;;;;;5038169;28;20044;-69
2023/12/24 11:18:09;;;;;;;0.00;0.00;;;11.30;99.90;;;;;;5036352;28;20048;-69
2023/12/24 11:20:42;;;;;;;11.63;1.65;;;11.70;99.90;;;;;;5048646;28;20109;-69
2023/12/24 11:23:09;;;;;;;16.52;1.35;;;12.60;99.90;;;;;;5046951;28;20040;-69
2023/12/24 11:25:39;;;;;;;18.10;1.52;;;11.30;99.90;;;;;;5046610;28;20048;-69
2023/12/24 11:28:08;;;;;;;11.30;1.55;;;11.30;99.90;;;;;;5020240;28;20435;-69
2023/12/24 11:30:58;;;;;;;12.02;1.15;;;13.10;99.90;;;;;;5032703;28;20291;-69
2023/12/24 11:33:35;;;;;;;8.43;1.23;;;12.70;99.90;;;;;;5049559;28;20044;-69
2023/12/24 11:36:11;;;;;;;13.93;1.58;;;13.00;99.90;;;;;;5050172;28;20135;-69
2023/12/24 11:38:39;;;;;;;15.63;1.77;;;11.30;99.90;;;;;;5049666;28;20052;-69
2023/12/24 11:41:21;;;;;;;9.73;1.05;;;12.80;99.90;;;;;;5049668;28;20048;-68
2023/12/24 11:43:58;;;;;;;14.10;1.52;;;13.10;99.90;;;;;;5067448;28;20052;-68
2023/12/24 11:46:25;;;;;;;12.10;1.25;;;12.70;99.90;;;;;;5048592;28;20280;-69
2023/12/24 11:48:53;;;;;;;10.02;1.02;;;12.80;99.90;;;;;;5049344;28;20075;-69
2023/12/24 11:51:24;;;;;;;11.48;1.00;;;11.30;99.90;;;;;;5050113;28;20032;-69
2023/12/24 11:54:02;;;;;;;12.55;1.10;;;12.00;99.90;;;;;;5048601;28;20397;-69
2023/12/24 11:56:29;;;;;;;9.32;1.52;;;13.20;99.90;;;;;;5050040;28;20047;-69
2023/12/24 11:58:55;;;;;;;15.77;1.85;;;11.60;99.90;;;;;;5032849;28;20040;-69
2023/12/24 12:01:24;;;;;;;11.68;0.98;;;11.40;99.90;;;;;;5032636;28;20044;-69
2023/12/24 12:04:04;;;;;;;15.15;1.45;;;13.10;99.90;;;;;;5050318;28;20418;-70
2023/12/24 12:06:31;;;;;;;14.15;1.50;;;11.50;99.90;;;;;;5034295;28;20491;-69
2023/12/24 12:08:58;;;;;;;14.23;1.60;;;11.70;99.90;;;;;;5033646;28;20599;-70
2023/12/24 12:11:24;;;;;;;7.88;1.08;;;12.30;99.90;;;;;;5032225;28;20096;-69
2023/12/24 12:13:50;;;;;;;16.77;1.83;;;11.60;99.90;;;;;;5046494;28;20051;-69
2023/12/24 12:16:16;;;;;;;10.63;0.88;;;13.10;99.90;;;;;;5031314;28;20036;-70
2023/12/24 12:18:42;;;;;;;9.20;1.00;;;11.70;99.90;;;;;;5049345;28;20129;-70
2023/12/24 12:21:10;;;;;;;15.45;1.90;;;11.70;99.90;;;;;;5048039;28;20098;-69
2023/12/24 12:23:38;;;;;;;15.55;1.45;;;13.10;99.90;;;;;;5031256;28;20384;-70
2023/12/24 12:26:04;;;;;;;10.48;1.27;;;11.40;99.90;;;;;;5030825;28;20037;-70
2023/12/24 12:28:30;;;;;;;15.18;1.30;;;12.70;99.90;;;;;;5030030;28;20437;-71
2023/12/24 12:30:57;;;;;;;13.23;1.90;;;11.90;99.90;;;;;;5046776;28;20411;-71
2023/12/24 12:33:22;;;;;;;9.10;1.38;;;11.40;99.90;;;;;;5018968;28;20295;-70
2023/12/24 12:35:48;;;;;;;13.32;1.80;;;11.60;99.90;;;;;;5047516;28;20577;-70
2023/12/24 12:38:14;;;;;;;16.15;1.65;;;13.00;99.90;;;;;;5030974;28;20044;-69
2023/12/24 12:40:39;;;;;;;16.20;1.73;;;11.70;99.90;;;;;;5029741;28;20537;-70
2023/12/24 12:43:06;;;;;;;16.48;2.00;;;11.50;99.90;;;;;;5047382;28;20049;-70
2023/12/24 12:45:32;;;;;;;16.30;1.58;;;13.40;99.90;;;;;;5031062;28;20036;-70